sensor_id;sensor_type;location;lat;lon;timestamp;temperature;humidity
33460;DHT22;19795;53.160;6.612;2024-02-26T05:23:37;3.10;99.90
33460;DHT22;19795;53.160;6.612;2024-02-26T05:28:38;3.20;99.90
33460;DHT22;19795;53.160;6.612;2024-02-26T05:31:05;3.70;99.90
33460;DHT22;19795;53.160;6.612;2024-02-26T05:33:31;3.60;99.90
33460;DHT22;19795;53.160;6.612;2024-02-26T05:35:59;3.40;99.90
33460;DHT22;19795;53.160;6.612;2024-02-26T05:38:29;3.70;99.90
33460;DHT22;19795;53.160;6.612;2024-02-26T05:40:54;3.20;99.90
33460;DHT22;19795;53.160;6.612;2024-02-26T05:43:20;3.90;99.90
33460;DHT22;19795;53.160;6.612;2024-02-26T05:45:46;3.50;99.90
33460;DHT22;19795;53.160;6.612;2024-02-26T05:48:12;3.60;99.90
33460;DHT22;19795;53.160;6.612;2024-02-26T05:50:37;3.20;99.90
33460;DHT22;19795;53.160;6.612;2024-02-26T05:53:03;3.20;99.90
33460;DHT22;19795;53.160;6.612;2024-02-26T05:55:32;3.10;99.90
33460;DHT22;19795;53.160;6.612;2024-02-26T05:57:57;3.20;99.90
33460;DHT22;19795;53.160;6.612;2024-02-26T06:00:23;3.60;99.90
33460;DHT22;19795;53.160;6.612;2024-02-26T06:02:49;3.40;99.90
33460;DHT22;19795;53.160;6.612;2024-02-26T06:05:14;3.20;99.90
33460;DHT22;19795;53.160;6.612;2024-02-26T06:07:40;3.10;99.90
33460;DHT22;19795;53.160;6.612;2024-02-26T06:10:06;3.70;99.90
33460;DHT22;19795;53.160;6.612;2024-02-26T06:12:35;3.20;99.90
33460;DHT22;19795;53.160;6.612;2024-02-26T06:15:01;3.60;99.90
33460;DHT22;19795;53.160;6.612;2024-02-26T06:17:27;3.20;99.90
33460;DHT22;19795;53.160;6.612;2024-02-26T06:19:53;3.80;99.90
33460;DHT22;19795;53.160;6.612;2024-02-26T06:22:19;3.60;99.90
33460;DHT22;19795;53.160;6.612;2024-02-26T06:24:45;3.40;99.90
33460;DHT22;19795;53.160;6.612;2024-02-26T06:27:13;3.20;99.90
33460;DHT22;19795;53.160;6.612;2024-02-26T06:29:39;3.30;99.90
33460;DHT22;19795;53.160;6.612;2024-02-26T06:32:05;3.50;99.90
33460;DHT22;19795;53.160;6.612;2024-02-26T06:34:31;3.30;99.90
33460;DHT22;19795;53.160;6.612;2024-02-26T06:37:25;3.40;99.90
33460;DHT22;19795;53.160;6.612;2024-02-26T06:40:03;3.40;99.90
33460;DHT22;19795;53.160;6.612;2024-02-26T06:45:04;3.40;99.90
33460;DHT22;19795;53.160;6.612;2024-02-26T06:47:30;3.40;99.90
33460;DHT22;19795;53.160;6.612;2024-02-26T06:52:31;3.40;99.90
33460;DHT22;19795;53.160;6.612;2024-02-26T06:54:57;3.40;99.90
33460;DHT22;19795;53.160;6.612;2024-02-26T06:57:23;3.60;99.90
33460;DHT22;19795;53.160;6.612;2024-02-26T06:59:49;4.10;99.90
33460;DHT22;19795;53.160;6.612;2024-02-26T07:02:17;4.30;99.90
33460;DHT22;19795;53.160;6.612;2024-02-26T07:04:44;3.40;99.90
33460;DHT22;19795;53.160;6.612;2024-02-26T07:07:10;4.30;99.90
33460;DHT22;19795;53.160;6.612;2024-02-26T07:09:36;4.10;99.90
33460;DHT22;19795;53.160;6.612;2024-02-26T07:12:02;3.70;99.90
33460;DHT22;19795;53.160;6.612;2024-02-26T07:14:28;3.40;99.90
33460;DHT22;19795;53.160;6.612;2024-02-26T07:16:54;3.40;99.90
33460;DHT22;19795;53.160;6.612;2024-02-26T07:19:19;3.50;99.90
33460;DHT22;19795;53.160;6.612;2024-02-26T07:21:53;3.50;99.90
33460;DHT22;19795;53.160;6.612;2024-02-26T07:24:19;3.40;99.90
33460;DHT22;19795;53.160;6.612;2024-02-26T07:26:45;3.60;99.90
33460;DHT22;19795;53.160;6.612;2024-02-26T07:29:10;3.50;99.90
33460;DHT22;19795;53.160;6.612;2024-02-26T07:31:36;4.00;99.90
33460;DHT22;19795;53.160;6.612;2024-02-26T07:34:02;3.90;99.90
33460;DHT22;19795;53.160;6.612;2024-02-26T07:36:27;3.70;99.90
33460;DHT22;19795;53.160;6.612;2024-02-26T07:38:53;3.80;99.90
33460;DHT22;19795;53.160;6.612;2024-02-26T07:41:20;3.70;99.90
33460;DHT22;19795;53.160;6.612;2024-02-26T07:43:45;3.70;99.90
33460;DHT22;19795;53.160;6.612;2024-02-26T07:46:12;4.00;99.90
33460;DHT22;19795;53.160;6.612;2024-02-26T07:48:38;3.80;99.90
33460;DHT22;19795;53.160;6.612;2024-02-26T07:51:04;3.70;99.90
33460;DHT22;19795;53.160;6.612;2024-02-26T07:53:30;3.70;99.90
33460;DHT22;19795;53.160;6.612;2024-02-26T07:55:56;3.80;99.90
33460;DHT22;19795;53.160;6.612;2024-02-26T07:58:23;3.80;99.90
33460;DHT22;19795;53.160;6.612;2024-02-26T08:00:52;3.80;99.90
33460;DHT22;19795;53.160;6.612;2024-02-26T08:03:18;4.00;99.90
33460;DHT22;19795;53.160;6.612;2024-02-26T08:05:43;3.80;99.90
33460;DHT22;19795;53.160;6.612;2024-02-26T08:08:09;3.90;99.90
33460;DHT22;19795;53.160;6.612;2024-02-26T08:10:35;3.90;99.90
33460;DHT22;19795;53.160;6.612;2024-02-26T08:13:00;3.90;99.90
33460;DHT22;19795;53.160;6.612;2024-02-26T08:15:34;3.90;99.90
33460;DHT22;19795;53.160;6.612;2024-02-26T08:18:03;3.90;99.90
33460;DHT22;19795;53.160;6.612;2024-02-26T08:20:30;3.90;99.90
33460;DHT22;19795;53.160;6.612;2024-02-26T08:22:56;4.50;99.90
33460;DHT22;19795;53.160;6.612;2024-02-26T08:25:23;5.00;99.90
33460;DHT22;19795;53.160;6.612;2024-02-26T08:27:49;4.20;99.90
33460;DHT22;19795;53.160;6.612;2024-02-26T08:30:17;4.30;99.90
33460;DHT22;19795;53.160;6.612;2024-02-26T08:32:44;4.00;99.90
33460;DHT22;19795;53.160;6.612;2024-02-26T08:35:10;3.80;99.90
33460;DHT22;19795;53.160;6.612;2024-02-26T08:37:35;4.10;99.90
33460;DHT22;19795;53.160;6.612;2024-02-26T08:40:01;4.20;99.90
33460;DHT22;19795;53.160;6.612;2024-02-26T08:42:29;4.30;99.90
33460;DHT22;19795;53.160;6.612;2024-02-26T08:44:55;4.20;99.90
33460;DHT22;19795;53.160;6.612;2024-02-26T08:47:20;4.30;99.90
33460;DHT22;19795;53.160;6.612;2024-02-26T08:49:46;4.50;99.90
33460;DHT22;19795;53.160;6.612;2024-02-26T08:52:12;4.50;99.90
33460;DHT22;19795;53.160;6.612;2024-02-26T08:54:38;4.40;99.90
33460;DHT22;19795;53.160;6.612;2024-02-26T08:57:04;4.40;99.90
33460;DHT22;19795;53.160;6.612;2024-02-26T08:59:31;4.40;99.90
33460;DHT22;19795;53.160;6.612;2024-02-26T09:01:57;4.40;99.90
33460;DHT22;19795;53.160;6.612;2024-02-26T09:04:22;5.10;99.90
33460;DHT22;19795;53.160;6.612;2024-02-26T09:06:50;4.50;99.90
33460;DHT22;19795;53.160;6.612;2024-02-26T09:09:16;4.50;99.90
33460;DHT22;19795;53.160;6.612;2024-02-26T09:11:42;5.10;99.90
33460;DHT22;19795;53.160;6.612;2024-02-26T09:14:08;4.60;99.90
33460;DHT22;19795;53.160;6.612;2024-02-26T09:16:33;4.70;99.90
33460;DHT22;19795;53.160;6.612;2024-02-26T09:18:59;4.70;99.90
33460;DHT22;19795;53.160;6.612;2024-02-26T09:21:25;4.70;99.90
33460;DHT22;19795;53.160;6.612;2024-02-26T09:23:51;4.70;99.90
33460;DHT22;19795;53.160;6.612;2024-02-26T09:26:20;5.10;99.90
33460;DHT22;19795;53.160;6.612;2024-02-26T09:28:45;5.30;99.90
33460;DHT22;19795;53.160;6.612;2024-02-26T09:31:11;5.10;99.90
33460;DHT22;19795;53.160;6.612;2024-02-26T09:33:37;5.20;99.90
33460;DHT22;19795;53.160;6.612;2024-02-26T09:36:04;4.90;99.90
33460;DHT22;19795;53.160;6.612;2024-02-26T09:38:31;4.90;99.90
33460;DHT22;19795;53.160;6.612;2024-02-26T09:41:02;4.90;99.90
33460;DHT22;19795;53.160;6.612;2024-02-26T09:43:35;5.00;99.90
33460;DHT22;19795;53.160;6.612;2024-02-26T09:46:03;5.00;99.90
33460;DHT22;19795;53.160;6.612;2024-02-26T09:48:30;4.90;99.90
33460;DHT22;19795;53.160;6.612;2024-02-26T09:50:57;5.30;99.90
33460;DHT22;19795;53.160;6.612;2024-02-26T09:53:22;5.00;99.90
33460;DHT22;19795;53.160;6.612;2024-02-26T09:55:48;5.10;99.90
33460;DHT22;19795;53.160;6.612;2024-02-26T09:58:14;5.30;99.90
33460;DHT22;19795;53.160;6.612;2024-02-26T10:00:47;5.10;99.90
33460;DHT22;19795;53.160;6.612;2024-02-26T10:03:16;5.70;99.90
33460;DHT22;19795;53.160;6.612;2024-02-26T10:05:44;5.30;99.90
33460;DHT22;19795;53.160;6.612;2024-02-26T10:08:12;5.30;99.90
33460;DHT22;19795;53.160;6.612;2024-02-26T10:10:39;5.30;99.90
33460;DHT22;19795;53.160;6.612;2024-02-26T10:13:05;5.30;99.90
33460;DHT22;19795;53.160;6.612;2024-02-26T10:15:36;5.30;99.90
33460;DHT22;19795;53.160;6.612;2024-02-26T10:18:08;5.30;99.90
33460;DHT22;19795;53.160;6.612;2024-02-26T10:20:33;5.40;99.90
33460;DHT22;19795;53.160;6.612;2024-02-26T10:23:05;5.30;99.90
33460;DHT22;19795;53.160;6.612;2024-02-26T10:25:31;5.30;99.90
33460;DHT22;19795;53.160;6.612;2024-02-26T10:28:01;5.40;99.90
33460;DHT22;19795;53.160;6.612;2024-02-26T10:30:30;5.40;99.90
33460;DHT22;19795;53.160;6.612;2024-02-26T10:32:56;5.40;99.90
33460;DHT22;19795;53.160;6.612;2024-02-26T10:35:23;5.50;99.90
33460;DHT22;19795;53.160;6.612;2024-02-26T10:37:50;5.50;99.90
33460;DHT22;19795;53.160;6.612;2024-02-26T10:40:18;5.50;99.90
33460;DHT22;19795;53.160;6.612;2024-02-26T10:42:44;5.50;99.90
33460;DHT22;19795;53.160;6.612;2024-02-26T10:45:12;5.50;99.90
33460;DHT22;19795;53.160;6.612;2024-02-26T10:47:40;5.90;99.90
33460;DHT22;19795;53.160;6.612;2024-02-26T10:50:06;5.40;99.90
33460;DHT22;19795;53.160;6.612;2024-02-26T10:52:34;5.60;99.90
33460;DHT22;19795;53.160;6.612;2024-02-26T10:55:01;6.10;99.90
33460;DHT22;19795;53.160;6.612;2024-02-26T10:57:34;6.20;99.90
33460;DHT22;19795;53.160;6.612;2024-02-26T11:00:01;5.70;99.90
33460;DHT22;19795;53.160;6.612;2024-02-26T11:02:33;6.30;99.90
33460;DHT22;19795;53.160;6.612;2024-02-26T11:05:06;5.80;99.90
33460;DHT22;19795;53.160;6.612;2024-02-26T11:07:34;5.70;99.90
33460;DHT22;19795;53.160;6.612;2024-02-26T11:10:03;5.70;99.90
33460;DHT22;19795;53.160;6.612;2024-02-26T11:12:35;5.80;99.90
33460;DHT22;19795;53.160;6.612;2024-02-26T11:15:03;5.80;99.90
33460;DHT22;19795;53.160;6.612;2024-02-26T11:17:29;5.80;99.90
33460;DHT22;19795;53.160;6.612;2024-02-26T11:20:01;5.80;99.90
33460;DHT22;19795;53.160;6.612;2024-02-26T11:22:33;5.90;99.90
33460;DHT22;19795;53.160;6.612;2024-02-26T11:24:59;6.20;99.90
33460;DHT22;19795;53.160;6.612;2024-02-26T11:27:40;6.10;99.90
33460;DHT22;19795;53.160;6.612;2024-02-26T11:30:10;6.00;99.90
33460;DHT22;19795;53.160;6.612;2024-02-26T11:32:37;6.10;99.90
33460;DHT22;19795;53.160;6.612;2024-02-26T11:35:04;6.40;99.90
33460;DHT22;19795;53.160;6.612;2024-02-26T11:37:31;6.30;99.90
33460;DHT22;19795;53.160;6.612;2024-02-26T11:39:59;6.30;99.90
33460;DHT22;19795;53.160;6.612;2024-02-26T11:42:26;6.80;99.90
33460;DHT22;19795;53.160;6.612;2024-02-26T11:44:52;6.40;99.90
33460;DHT22;19795;53.160;6.612;2024-02-26T11:47:18;6.60;99.90
33460;DHT22;19795;53.160;6.612;2024-02-26T11:49:44;6.90;99.90
33460;DHT22;19795;53.160;6.612;2024-02-26T11:52:10;6.60;99.90
33460;DHT22;19795;53.160;6.612;2024-02-26T11:59:51;6.60;99.90
33460;DHT22;19795;53.160;6.612;2024-02-26T12:02:55;6.80;99.90
33460;DHT22;19795;53.160;6.612;2024-02-26T12:05:33;6.90;99.90
33460;DHT22;19795;53.160;6.612;2024-02-26T12:08:07;6.80;99.90
33460;DHT22;19795;53.160;6.612;2024-02-26T12:10:36;6.70;99.90
33460;DHT22;19795;53.160;6.612;2024-02-26T12:13:14;6.60;99.90
33460;DHT22;19795;53.160;6.612;2024-02-26T12:15:45;6.40;99.90
33460;DHT22;19795;53.160;6.612;2024-02-26T12:18:16;6.90;99.90
33460;DHT22;19795;53.160;6.612;2024-02-26T12:20:42;6.30;99.90
33460;DHT22;19795;53.160;6.612;2024-02-26T12:23:16;6.90;99.90
33460;DHT22;19795;53.160;6.612;2024-02-26T12:25:44;6.30;99.90
33460;DHT22;19795;53.160;6.612;2024-02-26T12:28:14;6.10;99.90
33460;DHT22;19795;53.160;6.612;2024-02-26T12:30:41;6.00;99.90
33460;DHT22;19795;53.160;6.612;2024-02-26T12:33:07;6.00;99.90
33460;DHT22;19795;53.160;6.612;2024-02-26T12:35:35;6.60;99.90
33460;DHT22;19795;53.160;6.612;2024-02-26T12:38:00;6.10;99.90
33460;DHT22;19795;53.160;6.612;2024-02-26T12:40:26;6.20;99.90
33460;DHT22;19795;53.160;6.612;2024-02-26T12:42:54;5.90;99.90
33460;DHT22;19795;53.160;6.612;2024-02-26T12:45:24;5.80;99.90
33460;DHT22;19795;53.160;6.612;2024-02-26T12:47:51;5.70;99.90
33460;DHT22;19795;53.160;6.612;2024-02-26T12:50:20;6.10;99.90
33460;DHT22;19795;53.160;6.612;2024-02-26T12:52:48;5.70;99.90
33460;DHT22;19795;53.160;6.612;2024-02-26T12:55:19;5.70;99.90
33460;DHT22;19795;53.160;6.612;2024-02-26T12:57:45;5.60;99.90
33460;DHT22;19795;53.160;6.612;2024-02-26T13:00:18;5.60;99.90
33460;DHT22;19795;53.160;6.612;2024-02-26T13:02:48;5.60;99.90
33460;DHT22;19795;53.160;6.612;2024-02-26T13:05:18;5.80;99.90
33460;DHT22;19795;53.160;6.612;2024-02-26T13:07:45;5.40;99.90
33460;DHT22;19795;53.160;6.612;2024-02-26T13:10:13;5.50;99.90
33460;DHT22;19795;53.160;6.612;2024-02-26T13:12:46;5.80;99.90
33460;DHT22;19795;53.160;6.612;2024-02-26T13:15:22;5.60;99.90
33460;DHT22;19795;53.160;6.612;2024-02-26T13:17:49;5.60;99.90
33460;DHT22;19795;53.160;6.612;2024-02-26T13:20:28;5.40;99.90
33460;DHT22;19795;53.160;6.612;2024-02-26T13:23:07;5.30;99.90
33460;DHT22;19795;53.160;6.612;2024-02-26T13:25:34;5.30;99.90
33460;DHT22;19795;53.160;6.612;2024-02-26T13:28:17;5.40;99.90
33460;DHT22;19795;53.160;6.612;2024-02-26T13:30:53;5.40;99.90
33460;DHT22;19795;53.160;6.612;2024-02-26T13:33:19;5.40;99.90
33460;DHT22;19795;53.160;6.612;2024-02-26T13:35:44;5.40;99.90
33460;DHT22;19795;53.160;6.612;2024-02-26T13:38:11;5.40;99.90
33460;DHT22;19795;53.160;6.612;2024-02-26T13:40:37;6.00;99.90
33460;DHT22;19795;53.160;6.612;2024-02-26T13:43:04;5.90;99.90
33460;DHT22;19795;53.160;6.612;2024-02-26T13:45:30;5.90;99.90
33460;DHT22;19795;53.160;6.612;2024-02-26T13:48:02;5.40;99.90
33460;DHT22;19795;53.160;6.612;2024-02-26T13:50:28;5.40;99.90
33460;DHT22;19795;53.160;6.612;2024-02-26T13:52:54;5.50;99.90
33460;DHT22;19795;53.160;6.612;2024-02-26T13:55:22;5.40;99.90
33460;DHT22;19795;53.160;6.612;2024-02-26T13:57:50;5.40;99.90
33460;DHT22;19795;53.160;6.612;2024-02-26T14:00:17;5.60;99.90
33460;DHT22;19795;53.160;6.612;2024-02-26T14:02:43;5.40;99.90
33460;DHT22;19795;53.160;6.612;2024-02-26T14:05:09;5.50;99.90
33460;DHT22;19795;53.160;6.612;2024-02-26T14:07:35;5.40;99.90
33460;DHT22;19795;53.160;6.612;2024-02-26T14:10:00;5.40;99.90
33460;DHT22;19795;53.160;6.612;2024-02-26T14:12:26;5.30;99.90
33460;DHT22;19795;53.160;6.612;2024-02-26T14:14:52;5.30;99.90
33460;DHT22;19795;53.160;6.612;2024-02-26T14:17:21;5.30;99.90
33460;DHT22;19795;53.160;6.612;2024-02-26T14:19:48;5.60;99.90
33460;DHT22;19795;53.160;6.612;2024-02-26T14:22:14;5.60;99.90
33460;DHT22;19795;53.160;6.612;2024-02-26T14:24:41;5.30;99.90
33460;DHT22;19795;53.160;6.612;2024-02-26T14:27:12;5.70;99.90
33460;DHT22;19795;53.160;6.612;2024-02-26T14:29:42;5.60;99.90
33460;DHT22;19795;53.160;6.612;2024-02-26T14:32:11;5.30;99.90
33460;DHT22;19795;53.160;6.612;2024-02-26T14:34:37;5.30;99.90
33460;DHT22;19795;53.160;6.612;2024-02-26T14:37:03;5.30;99.90
33460;DHT22;19795;53.160;6.612;2024-02-26T14:39:29;5.30;99.90
33460;DHT22;19795;53.160;6.612;2024-02-26T14:41:56;5.70;99.90
33460;DHT22;19795;53.160;6.612;2024-02-26T14:44:23;5.20;99.90
33460;DHT22;19795;53.160;6.612;2024-02-26T14:46:50;5.20;99.90
33460;DHT22;19795;53.160;6.612;2024-02-26T14:49:15;5.60;99.90
33460;DHT22;19795;53.160;6.612;2024-02-26T14:51:41;5.10;99.90
33460;DHT22;19795;53.160;6.612;2024-02-26T14:54:11;5.70;99.90
33460;DHT22;19795;53.160;6.612;2024-02-26T14:56:37;5.70;99.90
33460;DHT22;19795;53.160;6.612;2024-02-26T14:59:02;5.20;99.90
33460;DHT22;19795;53.160;6.612;2024-02-26T15:01:28;5.20;99.90
33460;DHT22;19795;53.160;6.612;2024-02-26T15:03:54;5.20;99.90
33460;DHT22;19795;53.160;6.612;2024-02-26T15:06:21;5.60;99.90
33460;DHT22;19795;53.160;6.612;2024-02-26T15:08:47;5.20;99.90
33460;DHT22;19795;53.160;6.612;2024-02-26T15:11:13;5.40;99.90
33460;DHT22;19795;53.160;6.612;2024-02-26T15:13:38;5.60;99.90
33460;DHT22;19795;53.160;6.612;2024-02-26T15:16:05;5.20;99.90
33460;DHT22;19795;53.160;6.612;2024-02-26T15:18:31;5.20;99.90
33460;DHT22;19795;53.160;6.612;2024-02-26T15:20:57;5.30;99.90
33460;DHT22;19795;53.160;6.612;2024-02-26T15:23:23;5.20;99.90
33460;DHT22;19795;53.160;6.612;2024-02-26T15:25:48;5.20;99.90
33460;DHT22;19795;53.160;6.612;2024-02-26T15:28:14;5.10;99.90
33460;DHT22;19795;53.160;6.612;2024-02-26T15:30:40;5.20;99.90
33460;DHT22;19795;53.160;6.612;2024-02-26T15:33:09;5.20;99.90
33460;DHT22;19795;53.160;6.612;2024-02-26T15:35:35;5.10;99.90
33460;DHT22;19795;53.160;6.612;2024-02-26T15:38:02;5.10;99.90
33460;DHT22;19795;53.160;6.612;2024-02-26T15:40:27;5.10;99.90
33460;DHT22;19795;53.160;6.612;2024-02-26T15:42:53;5.10;99.90
33460;DHT22;19795;53.160;6.612;2024-02-26T15:45:19;5.10;99.90
33460;DHT22;19795;53.160;6.612;2024-02-26T15:47:44;5.10;99.90
33460;DHT22;19795;53.160;6.612;2024-02-26T15:50:10;5.10;99.90
33460;DHT22;19795;53.160;6.612;2024-02-26T15:52:37;5.10;99.90
33460;DHT22;19795;53.160;6.612;2024-02-26T15:55:04;5.40;99.90
33460;DHT22;19795;53.160;6.612;2024-02-26T15:57:30;5.10;99.90
33460;DHT22;19795;53.160;6.612;2024-02-26T15:59:56;5.10;99.90
33460;DHT22;19795;53.160;6.612;2024-02-26T16:02:26;5.10;99.90
33460;DHT22;19795;53.160;6.612;2024-02-26T16:04:52;5.10;99.90
33460;DHT22;19795;53.160;6.612;2024-02-26T16:07:31;5.20;99.90
33460;DHT22;19795;53.160;6.612;2024-02-26T16:09:57;5.10;99.90
33460;DHT22;19795;53.160;6.612;2024-02-26T16:12:39;5.00;99.90
33460;DHT22;19795;53.160;6.612;2024-02-26T16:15:06;5.00;99.90
33460;DHT22;19795;53.160;6.612;2024-02-26T16:17:52;5.00;99.90
33460;DHT22;19795;53.160;6.612;2024-02-26T16:20:21;5.00;99.90
33460;DHT22;19795;53.160;6.612;2024-02-26T16:22:48;5.30;99.90
33460;DHT22;19795;53.160;6.612;2024-02-26T16:25:14;5.20;99.90
33460;DHT22;19795;53.160;6.612;2024-02-26T16:27:40;4.90;99.90
33460;DHT22;19795;53.160;6.612;2024-02-26T16:30:08;4.90;99.90
33460;DHT22;19795;53.160;6.612;2024-02-26T16:32:34;4.80;99.90
33460;DHT22;19795;53.160;6.612;2024-02-26T16:35:02;5.20;99.90
33460;DHT22;19795;53.160;6.612;2024-02-26T16:37:30;4.80;99.90
33460;DHT22;19795;53.160;6.612;2024-02-26T16:40:03;4.80;99.90
33460;DHT22;19795;53.160;6.612;2024-02-26T16:42:35;4.80;99.90
33460;DHT22;19795;53.160;6.612;2024-02-26T16:45:02;4.70;99.90
33460;DHT22;19795;53.160;6.612;2024-02-26T16:47:33;4.70;99.90
33460;DHT22;19795;53.160;6.612;2024-02-26T16:49:58;4.70;99.90
33460;DHT22;19795;53.160;6.612;2024-02-26T16:52:24;4.70;99.90
33460;DHT22;19795;53.160;6.612;2024-02-26T16:54:51;4.60;99.90
33460;DHT22;19795;53.160;6.612;2024-02-26T16:57:17;4.60;99.90
33460;DHT22;19795;53.160;6.612;2024-02-26T16:59:42;4.90;99.90
33460;DHT22;19795;53.160;6.612;2024-02-26T17:02:08;4.60;99.90
33460;DHT22;19795;53.160;6.612;2024-02-26T17:04:34;4.80;99.90
33460;DHT22;19795;53.160;6.612;2024-02-26T17:07:00;4.60;99.90
33460;DHT22;19795;53.160;6.612;2024-02-26T17:09:29;4.70;99.90
33460;DHT22;19795;53.160;6.612;2024-02-26T17:11:55;4.50;99.90
33460;DHT22;19795;53.160;6.612;2024-02-26T17:14:22;4.50;99.90
33460;DHT22;19795;53.160;6.612;2024-02-26T17:16:51;4.50;99.90
33460;DHT22;19795;53.160;6.612;2024-02-26T17:19:17;4.50;99.90
33460;DHT22;19795;53.160;6.612;2024-02-26T17:21:43;4.50;99.90
33460;DHT22;19795;53.160;6.612;2024-02-26T17:24:11;4.60;99.90
33460;DHT22;19795;53.160;6.612;2024-02-26T17:26:37;5.10;99.90
33460;DHT22;19795;53.160;6.612;2024-02-26T17:29:07;4.40;99.90
33460;DHT22;19795;53.160;6.612;2024-02-26T17:31:34;4.80;99.90
33460;DHT22;19795;53.160;6.612;2024-02-26T17:34:02;4.40;99.90
33460;DHT22;19795;53.160;6.612;2024-02-26T17:36:35;4.80;99.90
33460;DHT22;19795;53.160;6.612;2024-02-26T17:39:00;4.40;99.90
33460;DHT22;19795;53.160;6.612;2024-02-26T17:41:26;4.80;99.90
33460;DHT22;19795;53.160;6.612;2024-02-26T17:43:52;4.30;99.90
33460;DHT22;19795;53.160;6.612;2024-02-26T17:46:18;4.30;99.90
33460;DHT22;19795;53.160;6.612;2024-02-26T17:48:44;4.70;99.90
33460;DHT22;19795;53.160;6.612;2024-02-26T17:51:11;4.30;99.90
33460;DHT22;19795;53.160;6.612;2024-02-26T17:53:40;4.50;99.90
33460;DHT22;19795;53.160;6.612;2024-02-26T17:56:06;4.30;99.90
33460;DHT22;19795;53.160;6.612;2024-02-26T17:58:33;4.30;99.90
33460;DHT22;19795;53.160;6.612;2024-02-26T18:00:59;4.30;99.90
33460;DHT22;19795;53.160;6.612;2024-02-26T18:03:25;4.30;99.90
33460;DHT22;19795;53.160;6.612;2024-02-26T18:05:51;4.70;99.90
33460;DHT22;19795;53.160;6.612;2024-02-26T18:08:16;4.30;99.90
33460;DHT22;19795;53.160;6.612;2024-02-26T18:10:47;4.30;99.90
33460;DHT22;19795;53.160;6.612;2024-02-26T18:13:14;4.40;99.90
33460;DHT22;19795;53.160;6.612;2024-02-26T18:15:39;4.20;99.90
33460;DHT22;19795;53.160;6.612;2024-02-26T18:18:05;4.30;99.90
33460;DHT22;19795;53.160;6.612;2024-02-26T18:20:31;4.20;99.90
33460;DHT22;19795;53.160;6.612;2024-02-26T18:22:57;4.60;99.90
33460;DHT22;19795;53.160;6.612;2024-02-26T18:25:22;4.20;99.90
33460;DHT22;19795;53.160;6.612;2024-02-26T18:27:50;4.60;99.90
33460;DHT22;19795;53.160;6.612;2024-02-26T18:30:17;4.50;99.90
33460;DHT22;19795;53.160;6.612;2024-02-26T18:32:43;4.10;99.90
33460;DHT22;19795;53.160;6.612;2024-02-26T18:35:10;4.10;99.90
33460;DHT22;19795;53.160;6.612;2024-02-26T18:37:35;4.10;99.90
33460;DHT22;19795;53.160;6.612;2024-02-26T18:40:01;4.60;99.90
33460;DHT22;19795;53.160;6.612;2024-02-26T18:42:27;4.30;99.90
33460;DHT22;19795;53.160;6.612;2024-02-26T18:44:54;4.10;99.90
33460;DHT22;19795;53.160;6.612;2024-02-26T18:47:22;4.10;99.90
33460;DHT22;19795;53.160;6.612;2024-02-26T18:49:51;4.20;99.90
33460;DHT22;19795;53.160;6.612;2024-02-26T18:52:17;4.00;99.90
33460;DHT22;19795;53.160;6.612;2024-02-26T18:54:43;4.00;99.90
33460;DHT22;19795;53.160;6.612;2024-02-26T18:57:09;4.00;99.90
33460;DHT22;19795;53.160;6.612;2024-02-26T18:59:35;4.20;99.90
33460;DHT22;19795;53.160;6.612;2024-02-26T19:02:01;3.90;99.90
33460;DHT22;19795;53.160;6.612;2024-02-26T19:04:27;4.00;99.90
33460;DHT22;19795;53.160;6.612;2024-02-26T19:06:53;4.40;99.90
33460;DHT22;19795;53.160;6.612;2024-02-26T19:09:19;4.10;99.90
33460;DHT22;19795;53.160;6.612;2024-02-26T19:11:46;3.70;99.90
33460;DHT22;19795;53.160;6.612;2024-02-26T19:14:13;3.80;99.90
33460;DHT22;19795;53.160;6.612;2024-02-26T19:16:40;3.80;99.90
33460;DHT22;19795;53.160;6.612;2024-02-26T19:19:07;3.80;99.90
33460;DHT22;19795;53.160;6.612;2024-02-26T19:21:34;4.20;99.90
33460;DHT22;19795;53.160;6.612;2024-02-26T19:24:00;3.70;99.90
33460;DHT22;19795;53.160;6.612;2024-02-26T19:26:28;3.70;99.90
33460;DHT22;19795;53.160;6.612;2024-02-26T19:28:54;4.10;99.90
33460;DHT22;19795;53.160;6.612;2024-02-26T19:31:20;3.70;99.90
33460;DHT22;19795;53.160;6.612;2024-02-26T19:33:45;3.70;99.90
33460;DHT22;19795;53.160;6.612;2024-02-26T19:36:12;3.90;99.90
33460;DHT22;19795;53.160;6.612;2024-02-26T19:38:38;3.90;99.90
33460;DHT22;19795;53.160;6.612;2024-02-26T19:41:04;3.60;99.90
33460;DHT22;19795;53.160;6.612;2024-02-26T19:43:30;3.70;99.90
33460;DHT22;19795;53.160;6.612;2024-02-26T19:45:56;3.70;99.90
33460;DHT22;19795;53.160;6.612;2024-02-26T19:48:22;3.80;99.90
33460;DHT22;19795;53.160;6.612;2024-02-26T19:50:48;3.70;99.90
33460;DHT22;19795;53.160;6.612;2024-02-26T19:53:14;3.60;99.90
33460;DHT22;19795;53.160;6.612;2024-02-26T19:55:40;3.70;99.90
33460;DHT22;19795;53.160;6.612;2024-02-26T19:58:05;3.70;99.90
33460;DHT22;19795;53.160;6.612;2024-02-26T20:00:31;3.80;99.90
33460;DHT22;19795;53.160;6.612;2024-02-26T20:02:57;3.90;99.90
33460;DHT22;19795;53.160;6.612;2024-02-26T20:05:23;4.00;99.90
33460;DHT22;19795;53.160;6.612;2024-02-26T20:07:49;3.70;99.90
33460;DHT22;19795;53.160;6.612;2024-02-26T20:10:16;3.50;99.90
33460;DHT22;19795;53.160;6.612;2024-02-26T20:12:42;3.60;99.90
33460;DHT22;19795;53.160;6.612;2024-02-26T20:15:08;3.60;99.90
33460;DHT22;19795;53.160;6.612;2024-02-26T20:17:34;3.80;99.90
33460;DHT22;19795;53.160;6.612;2024-02-26T20:20:02;4.20;99.90
33460;DHT22;19795;53.160;6.612;2024-02-26T20:22:28;3.50;99.90
33460;DHT22;19795;53.160;6.612;2024-02-26T20:24:54;3.80;99.90
33460;DHT22;19795;53.160;6.612;2024-02-26T20:27:28;3.50;99.90
33460;DHT22;19795;53.160;6.612;2024-02-26T20:29:53;3.50;99.90
33460;DHT22;19795;53.160;6.612;2024-02-26T20:32:25;3.40;99.90
33460;DHT22;19795;53.160;6.612;2024-02-26T20:34:53;3.40;99.90
33460;DHT22;19795;53.160;6.612;2024-02-26T20:37:19;3.40;99.90
33460;DHT22;19795;53.160;6.612;2024-02-26T20:39:47;3.80;99.90
33460;DHT22;19795;53.160;6.612;2024-02-26T20:42:13;4.00;99.90
33460;DHT22;19795;53.160;6.612;2024-02-26T20:44:39;4.10;99.90
33460;DHT22;19795;53.160;6.612;2024-02-26T20:47:04;4.00;99.90
33460;DHT22;19795;53.160;6.612;2024-02-26T20:49:30;3.50;99.90
33460;DHT22;19795;53.160;6.612;2024-02-26T20:51:56;3.90;99.90
33460;DHT22;19795;53.160;6.612;2024-02-26T20:54:22;3.90;99.90
33460;DHT22;19795;53.160;6.612;2024-02-26T20:56:47;3.90;99.90
33460;DHT22;19795;53.160;6.612;2024-02-26T20:59:14;3.60;99.90
33460;DHT22;19795;53.160;6.612;2024-02-26T21:05:03;3.50;99.90
33460;DHT22;19795;53.160;6.612;2024-02-26T21:07:29;3.50;99.90
33460;DHT22;19795;53.160;6.612;2024-02-26T21:09:55;3.50;99.90
33460;DHT22;19795;53.160;6.612;2024-02-26T21:12:21;3.40;99.90
33460;DHT22;19795;53.160;6.612;2024-02-26T21:14:47;4.10;99.90
33460;DHT22;19795;53.160;6.612;2024-02-26T21:17:13;3.80;99.90
33460;DHT22;19795;53.160;6.612;2024-02-26T21:19:38;3.50;99.90
33460;DHT22;19795;53.160;6.612;2024-02-26T21:22:04;3.40;99.90
33460;DHT22;19795;53.160;6.612;2024-02-26T21:24:30;3.70;99.90